Time;durP1;ratioP1;P1;durP2;ratioP2;P2;SDS_P1;SDS_P2;PMS_P1;PMS_P2;Temp;Humidity;BMP_temperature;BMP_pressure;BME280_temperature;BME280_humidity;BME280_pressure;Samples;Min_cycle;Max_cycle;Signal;HPM_P1;HPM_P2
2023/01/10 00:02:23;;;;;;;;;51.00;36.00;;;;;;;;5065599;27;51047;-59
2023/01/10 00:05:08;;;;;;;;;57.25;39.25;;;;;;;;5082070;27;51093;-58
2023/01/10 00:07:52;;;;;;;;;52.75;38.00;;;;;;;;5081782;27;51122;-58
2023/01/10 00:10:37;;;;;;;;;52.00;37.75;;;;;;;;5081147;27;51169;-58
2023/01/10 00:13:24;;;;;;;;;52.50;36.25;;;;;;;;5070004;27;51007;-55
2023/01/10 00:16:08;;;;;;;;;54.50;37.75;;;;;;;;5061100;28;51091;-59
2023/01/10 00:18:52;;;;;;;;;53.25;38.25;;;;;;;;5061289;28;51108;-58
2023/01/10 00:21:38;;;;;;;;;51.00;39.00;;;;;;;;5061138;28;51105;-57
2023/01/10 00:24:22;;;;;;;;;56.00;36.75;;;;;;;;5061240;28;51181;-58
2023/01/10 00:27:08;;;;;;;;;54.25;35.75;;;;;;;;5060859;28;51113;-56
2023/01/10 00:29:53;;;;;;;;;58.50;40.75;;;;;;;;5061136;28;51095;-58
2023/01/10 00:32:37;;;;;;;;;57.00;38.75;;;;;;;;5060214;28;51255;-60
2023/01/10 00:35:22;;;;;;;;;51.25;38.50;;;;;;;;5059236;27;51067;-58
2023/01/10 00:38:06;;;;;;;;;56.75;39.75;;;;;;;;5059911;28;51125;-57
2023/01/10 00:40:51;;;;;;;;;54.75;38.50;;;;;;;;5060022;28;51217;-59
2023/01/10 00:46:38;;;;;;;;;51.75;38.25;;;;;;;;5060842;28;51106;-58
2023/01/10 00:49:23;;;;;;;;;50.75;36.25;;;;;;;;5060780;28;51168;-58
2023/01/10 00:52:09;;;;;;;;;50.25;37.25;;;;;;;;5043118;28;51174;-58
2023/01/10 00:54:55;;;;;;;;;57.50;39.50;;;;;;;;5055588;28;51158;-59
2023/01/10 00:57:39;;;;;;;;;52.25;37.50;;;;;;;;5060463;28;50998;-60
2023/01/10 01:00:23;;;;;;;;;52.50;37.25;;;;;;;;5060463;28;51062;-59
2023/01/10 01:03:08;;;;;;;;;52.25;37.00;;;;;;;;5060203;28;51024;-60
2023/01/10 01:05:52;;;;;;;;;55.00;40.25;;;;;;;;5059809;28;51376;-59
2023/01/10 01:08:36;;;;;;;;;54.25;39.50;;;;;;;;5060267;28;51202;-60
2023/01/10 01:11:21;;;;;;;;;51.75;33.50;;;;;;;;5059791;28;51113;-60
2023/01/10 01:14:05;;;;;;;;;55.75;38.00;;;;;;;;5080808;27;51077;-59
2023/01/10 01:16:50;;;;;;;;;58.75;40.25;;;;;;;;5060121;28;51489;-60
2023/01/10 01:19:34;;;;;;;;;54.75;37.50;;;;;;;;5060153;28;51400;-61
2023/01/10 01:22:19;;;;;;;;;57.25;38.00;;;;;;;;5060008;28;50996;-60
2023/01/10 01:25:03;;;;;;;;;54.75;38.25;;;;;;;;5049510;28;51080;-59
2023/01/10 01:27:48;;;;;;;;;50.50;37.25;;;;;;;;5059931;28;51110;-59
2023/01/10 01:30:32;;;;;;;;;45.75;35.25;;;;;;;;5060002;28;51167;-60
2023/01/10 01:33:17;;;;;;;;;54.00;41.75;;;;;;;;5060000;28;51533;-57
2023/01/10 01:36:02;;;;;;;;;57.25;40.75;;;;;;;;5054050;28;51213;-59
2023/01/10 01:38:46;;;;;;;;;62.25;43.75;;;;;;;;5060133;28;51165;-59
2023/01/10 01:44:35;;;;;;;;;59.50;43.25;;;;;;;;5059576;28;51179;-59
2023/01/10 01:47:24;;;;;;;;;57.25;39.25;;;;;;;;5059803;28;51150;-58
2023/01/10 01:50:30;;;;;;;;;61.75;44.00;;;;;;;;5059880;28;51181;-59
2023/01/10 01:53:21;;;;;;;;;62.00;45.00;;;;;;;;5059605;28;51561;-58
2023/01/10 01:56:08;;;;;;;;;63.00;45.25;;;;;;;;5059214;28;51462;-57
2023/01/10 01:58:55;;;;;;;;;61.75;45.25;;;;;;;;5059616;28;51666;-58
2023/01/10 02:01:40;;;;;;;;;64.50;48.00;;;;;;;;5059174;28;51126;-56
2023/01/10 02:04:45;;;;;;;;;64.00;48.00;;;;;;;;5057792;28;51150;-58
2023/01/10 02:07:32;;;;;;;;;68.50;50.25;;;;;;;;5057105;28;51255;-58
2023/01/10 02:10:33;;;;;;;;;62.25;47.75;;;;;;;;5057768;28;51418;-58
2023/01/10 02:13:19;;;;;;;;;59.25;42.00;;;;;;;;5057366;28;51161;-57
2023/01/10 02:16:03;;;;;;;;;65.25;45.25;;;;;;;;5057563;28;51083;-59
2023/01/10 02:18:48;;;;;;;;;69.25;47.50;;;;;;;;5057867;28;51537;-59
2023/01/10 02:21:40;;;;;;;;;64.25;45.50;;;;;;;;5059427;28;51082;-59
2023/01/10 02:24:30;;;;;;;;;64.50;44.25;;;;;;;;5059720;28;51187;-58
2023/01/10 02:27:22;;;;;;;;;66.00;46.00;;;;;;;;5059543;28;51100;-58
2023/01/10 02:30:06;;;;;;;;;63.25;46.25;;;;;;;;5059745;28;51039;-59
2023/01/10 02:32:56;;;;;;;;;61.00;46.25;;;;;;;;5059036;28;51363;-61
2023/01/10 02:35:48;;;;;;;;;63.00;47.25;;;;;;;;5059242;28;51222;-58
2023/01/10 02:38:43;;;;;;;;;56.50;42.25;;;;;;;;5059171;28;51160;-59
2023/01/10 02:41:27;;;;;;;;;57.50;43.75;;;;;;;;5042844;28;51059;-58
2023/01/10 02:44:14;;;;;;;;;60.50;45.25;;;;;;;;5066313;28;51392;-58
2023/01/10 02:47:01;;;;;;;;;43.50;33.50;;;;;;;;5077847;28;51196;-56
2023/01/10 02:49:47;;;;;;;;;57.25;43.50;;;;;;;;5079772;28;51170;-57
2023/01/10 02:52:31;;;;;;;;;61.00;44.75;;;;;;;;5079198;28;51034;-59
2023/01/10 02:55:15;;;;;;;;;62.75;46.75;;;;;;;;5079832;28;51478;-60
2023/01/10 02:58:00;;;;;;;;;62.50;45.25;;;;;;;;5078971;28;51418;-60
2023/01/10 03:01:07;;;;;;;;;55.75;43.50;;;;;;;;5079628;28;51118;-59
2023/01/10 03:04:00;;;;;;;;;60.25;45.75;;;;;;;;5059377;27;51062;-58
2023/01/10 03:06:51;;;;;;;;;62.50;46.25;;;;;;;;5083417;27;51034;-60
2023/01/10 03:09:55;;;;;;;;;56.00;44.25;;;;;;;;5083015;27;51259;-59
2023/01/10 03:12:55;;;;;;;;;63.25;44.00;;;;;;;;5083003;27;51038;-57
2023/01/10 03:15:41;;;;;;;;;57.75;42.25;;;;;;;;5081967;27;52943;-58
2023/01/10 03:18:37;;;;;;;;;59.25;44.25;;;;;;;;5082651;27;51188;-58
2023/01/10 03:21:23;;;;;;;;;60.00;43.75;;;;;;;;5083315;27;51128;-59
2023/01/10 03:24:18;;;;;;;;;58.25;45.25;;;;;;;;5082499;27;51014;-58
2023/01/10 03:27:19;;;;;;;;;55.00;41.00;;;;;;;;5082653;27;51598;-58
2023/01/10 03:30:06;;;;;;;;;47.75;37.50;;;;;;;;5082191;27;51019;-58
2023/01/10 03:32:51;;;;;;;;;55.75;41.75;;;;;;;;5082974;27;51125;-58
2023/01/10 03:35:56;;;;;;;;;54.00;44.00;;;;;;;;5081369;27;51537;-59
2023/01/10 03:38:49;;;;;;;;;56.00;42.00;;;;;;;;5082564;27;51150;-60
2023/01/10 03:41:34;;;;;;;;;59.00;42.75;;;;;;;;5055839;28;51595;-59
2023/01/10 03:47:31;;;;;;;;;58.25;45.25;;;;;;;;5062430;28;50995;-58
2023/01/10 03:50:23;;;;;;;;;61.75;46.25;;;;;;;;5061659;28;51164;-59
2023/01/10 03:53:08;;;;;;;;;57.75;43.50;;;;;;;;5061641;28;51702;-57
2023/01/10 03:55:52;;;;;;;;;59.75;44.75;;;;;;;;5061498;28;51169;-59
2023/01/10 03:58:36;;;;;;;;;62.25;45.50;;;;;;;;5062039;28;51151;-57
2023/01/10 04:01:21;;;;;;;;;65.00;47.25;;;;;;;;5061332;28;51176;-55
2023/01/10 04:04:05;;;;;;;;;66.25;48.00;;;;;;;;5061692;28;50945;-57
2023/01/10 04:06:49;;;;;;;;;56.25;45.50;;;;;;;;5061733;28;51602;-56
2023/01/10 04:09:34;;;;;;;;;63.50;47.25;;;;;;;;5061444;28;51086;-58
2023/01/10 04:12:18;;;;;;;;;61.75;45.50;;;;;;;;5061604;28;51172;-59
2023/01/10 04:15:03;;;;;;;;;59.00;45.00;;;;;;;;5061297;28;51126;-59
2023/01/10 04:17:47;;;;;;;;;59.75;44.25;;;;;;;;5061567;28;51852;-56
2023/01/10 04:20:32;;;;;;;;;53.50;42.50;;;;;;;;5061291;28;51404;-58
2023/01/10 04:23:16;;;;;;;;;53.75;41.75;;;;;;;;5061557;28;51170;-56
2023/01/10 04:26:00;;;;;;;;;55.50;41.25;;;;;;;;5043799;28;51044;-58
2023/01/10 04:28:45;;;;;;;;;57.00;40.00;;;;;;;;5055100;28;51166;-59
2023/01/10 04:31:29;;;;;;;;;55.75;42.75;;;;;;;;5061260;28;51508;-58
2023/01/10 04:34:14;;;;;;;;;56.50;43.50;;;;;;;;5060613;28;51084;-60
2023/01/10 04:36:58;;;;;;;;;56.00;41.50;;;;;;;;5061392;28;51156;-57
2023/01/10 04:39:42;;;;;;;;;57.75;42.75;;;;;;;;5061020;28;51454;-59
2023/01/10 04:42:27;;;;;;;;;54.25;40.25;;;;;;;;5061009;28;51201;-58
2023/01/10 04:45:12;;;;;;;;;62.00;44.50;;;;;;;;5042713;28;51094;-59
2023/01/10 04:47:58;;;;;;;;;56.00;43.25;;;;;;;;5061386;28;51146;-57
2023/01/10 04:50:42;;;;;;;;;54.25;43.25;;;;;;;;5060685;28;51347;-58
2023/01/10 04:53:26;;;;;;;;;55.50;44.25;;;;;;;;5060540;28;51039;-60
2023/01/10 04:56:14;;;;;;;;;54.25;44.00;;;;;;;;5060278;28;51581;-59
2023/01/10 04:58:59;;;;;;;;;67.50;47.00;;;;;;;;5060422;28;51044;-59
2023/01/10 05:01:43;;;;;;;;;57.25;44.00;;;;;;;;5060554;28;51257;-59
2023/01/10 05:04:27;;;;;;;;;43.75;31.75;;;;;;;;5060212;28;51562;-58
2023/01/10 05:07:12;;;;;;;;;64.00;46.75;;;;;;;;5044185;28;51665;-59
2023/01/10 05:09:56;;;;;;;;;66.75;48.00;;;;;;;;5053409;28;51110;-58
2023/01/10 05:12:41;;;;;;;;;61.50;44.50;;;;;;;;5060522;28;51181;-60
2023/01/10 05:15:25;;;;;;;;;56.50;43.25;;;;;;;;5060138;28;51342;-58
2023/01/10 05:18:10;;;;;;;;;59.50;45.75;;;;;;;;5060149;28;51178;-57
2023/01/10 05:21:01;;;;;;;;;58.00;43.50;;;;;;;;5060403;28;51709;-58
2023/01/10 05:23:45;;;;;;;;;62.00;44.25;;;;;;;;5059941;28;51048;-59
2023/01/10 05:26:30;;;;;;;;;56.50;43.25;;;;;;;;5059960;28;51042;-58
2023/01/10 05:29:14;;;;;;;;;60.00;46.25;;;;;;;;5043896;28;51381;-58
2023/01/10 05:31:58;;;;;;;;;60.00;45.00;;;;;;;;5052815;28;51142;-58
2023/01/10 05:34:43;;;;;;;;;65.50;46.00;;;;;;;;5059743;28;51107;-57
2023/01/10 05:37:27;;;;;;;;;64.25;46.50;;;;;;;;5060362;28;51431;-56
2023/01/10 05:40:12;;;;;;;;;60.75;47.25;;;;;;;;5059771;28;51148;-56
2023/01/10 05:42:56;;;;;;;;;60.25;45.50;;;;;;;;5059969;28;50953;-59
2023/01/10 05:45:41;;;;;;;;;61.00;44.50;;;;;;;;5059542;28;51085;-56
2023/01/10 05:48:25;;;;;;;;;66.25;50.00;;;;;;;;5059676;28;51070;-59
2023/01/10 05:51:09;;;;;;;;;68.00;51.75;;;;;;;;5060085;28;51113;-58
2023/01/10 05:53:54;;;;;;;;;64.25;49.25;;;;;;;;5059514;28;51188;-57
2023/01/10 05:56:38;;;;;;;;;62.25;48.50;;;;;;;;5059433;28;51011;-57
2023/01/10 05:59:23;;;;;;;;;68.75;48.75;;;;;;;;5059617;28;51171;-59
2023/01/10 06:02:07;;;;;;;;;65.25;49.25;;;;;;;;5060172;28;51209;-58
2023/01/10 06:04:54;;;;;;;;;62.50;47.75;;;;;;;;5061923;28;51545;-59
2023/01/10 06:07:38;;;;;;;;;65.25;49.00;;;;;;;;5079873;28;51503;-58
2023/01/10 06:10:22;;;;;;;;;61.75;46.25;;;;;;;;5080062;28;51077;-58
2023/01/10 06:13:08;;;;;;;;;63.50;48.25;;;;;;;;5079805;28;51147;-59
2023/01/10 06:15:53;;;;;;;;;70.00;49.50;;;;;;;;5080153;28;51022;-59
2023/01/10 06:18:37;;;;;;;;;66.25;49.75;;;;;;;;5071189;28;51193;-59
2023/01/10 06:21:22;;;;;;;;;66.00;48.75;;;;;;;;5059760;28;51617;-58
2023/01/10 06:24:06;;;;;;;;;67.00;50.75;;;;;;;;5059577;28;51021;-58
2023/01/10 06:26:50;;;;;;;;;64.50;51.00;;;;;;;;5059583;28;51090;-55
2023/01/10 06:29:35;;;;;;;;;68.25;50.50;;;;;;;;5059239;28;51359;-60
2023/01/10 06:32:19;;;;;;;;;69.25;50.50;;;;;;;;5059501;28;51266;-57
2023/01/10 06:35:04;;;;;;;;;64.75;50.25;;;;;;;;5059406;28;51600;-58
2023/01/10 06:37:48;;;;;;;;;68.50;50.25;;;;;;;;5058977;28;51087;-58
2023/01/10 06:40:32;;;;;;;;;63.00;45.00;;;;;;;;5063501;28;51098;-58
2023/01/10 06:43:17;;;;;;;;;69.75;51.75;;;;;;;;5053698;28;51139;-59
2023/01/10 06:46:01;;;;;;;;;67.50;50.25;;;;;;;;5062936;28;51764;-58
2023/01/10 06:48:46;;;;;;;;;68.25;51.25;;;;;;;;5062891;28;50945;-59
2023/01/10 06:51:30;;;;;;;;;71.50;54.50;;;;;;;;5063623;28;51092;-58
2023/01/10 06:54:15;;;;;;;;;80.50;59.50;;;;;;;;5062824;28;51070;-59
2023/01/10 06:56:59;;;;;;;;;73.50;55.50;;;;;;;;5062593;28;51008;-58
2023/01/10 06:59:44;;;;;;;;;72.00;52.25;;;;;;;;5063055;28;51158;-60
2023/01/10 07:02:28;;;;;;;;;66.50;51.25;;;;;;;;5083103;27;51003;-59
2023/01/10 07:05:13;;;;;;;;;68.50;50.50;;;;;;;;5083305;27;51007;-58
2023/01/10 07:08:00;;;;;;;;;68.75;51.00;;;;;;;;5082964;27;51124;-60
2023/01/10 07:10:44;;;;;;;;;70.75;52.00;;;;;;;;5083063;27;51559;-59
2023/01/10 07:13:28;;;;;;;;;66.50;51.25;;;;;;;;5082998;27;51149;-56
2023/01/10 07:16:14;;;;;;;;;71.25;48.75;;;;;;;;5083068;27;51171;-58
2023/01/10 07:18:58;;;;;;;;;69.25;52.50;;;;;;;;5082527;27;51330;-59
2023/01/10 07:21:43;;;;;;;;;65.75;48.00;;;;;;;;5082703;27;51098;-56
2023/01/10 07:24:27;;;;;;;;;69.25;51.50;;;;;;;;5083130;27;51257;-58
2023/01/10 07:27:12;;;;;;;;;73.00;54.25;;;;;;;;5082457;27;51157;-59
2023/01/10 07:29:56;;;;;;;;;67.75;49.75;;;;;;;;5082722;27;51006;-60
2023/01/10 07:32:40;;;;;;;;;65.75;49.00;;;;;;;;5082644;27;51122;-60
2023/01/10 07:35:25;;;;;;;;;71.50;51.50;;;;;;;;5082704;27;51041;-60
2023/01/10 07:38:09;;;;;;;;;72.00;52.25;;;;;;;;5081900;27;51264;-59
2023/01/10 07:40:54;;;;;;;;;65.00;49.50;;;;;;;;5082712;27;51168;-60
2023/01/10 07:43:38;;;;;;;;;64.00;47.50;;;;;;;;5082442;27;51486;-59
2023/01/10 07:46:23;;;;;;;;;67.25;47.75;;;;;;;;5082495;27;51138;-59
2023/01/10 07:49:07;;;;;;;;;61.50;47.50;;;;;;;;5082015;27;51734;-59
2023/01/10 07:51:52;;;;;;;;;65.75;48.25;;;;;;;;5082159;27;51167;-60
2023/01/10 07:54:36;;;;;;;;;66.00;46.50;;;;;;;;5082586;27;51056;-60
2023/01/10 07:57:20;;;;;;;;;65.50;49.00;;;;;;;;5080672;27;51153;-58
2023/01/10 08:00:05;;;;;;;;;67.50;47.50;;;;;;;;5082158;27;51647;-59
2023/01/10 08:02:52;;;;;;;;;64.50;47.00;;;;;;;;5082062;27;51238;-58
2023/01/10 08:05:36;;;;;;;;;69.50;50.25;;;;;;;;5082499;27;51048;-59
2023/01/10 08:08:20;;;;;;;;;73.75;50.25;;;;;;;;5081676;27;51072;-60
2023/01/10 08:11:05;;;;;;;;;65.25;46.75;;;;;;;;5081780;27;51103;-59
2023/01/10 08:13:50;;;;;;;;;64.50;47.75;;;;;;;;5080830;27;51679;-61
2023/01/10 08:16:34;;;;;;;;;65.25;45.00;;;;;;;;5081766;27;51170;-59
2023/01/10 08:19:18;;;;;;;;;71.00;50.75;;;;;;;;5080734;27;51117;-59
2023/01/10 08:22:03;;;;;;;;;64.75;48.50;;;;;;;;5081644;27;51178;-60
2023/01/10 08:24:47;;;;;;;;;58.75;41.50;;;;;;;;5081850;27;51102;-61
2023/01/10 08:27:32;;;;;;;;;65.50;47.75;;;;;;;;5081440;27;51112;-57
2023/01/10 08:30:16;;;;;;;;;65.50;46.50;;;;;;;;5080317;27;51283;-60
2023/01/10 08:33:01;;;;;;;;;63.50;45.00;;;;;;;;5061024;28;51094;-60
2023/01/10 08:35:45;;;;;;;;;62.50;47.25;;;;;;;;5061085;28;51146;-60
2023/01/10 08:38:30;;;;;;;;;60.50;44.75;;;;;;;;5060548;28;51497;-59
2023/01/10 08:41:14;;;;;;;;;61.25;45.50;;;;;;;;5060644;28;50995;-60
2023/01/10 08:43:59;;;;;;;;;65.50;47.00;;;;;;;;5061098;28;51157;-60
2023/01/10 08:46:44;;;;;;;;;60.00;43.50;;;;;;;;5051682;28;51178;-60
2023/01/10 08:49:29;;;;;;;;;60.00;44.25;;;;;;;;5060618;28;51712;-60
2023/01/10 08:52:13;;;;;;;;;62.50;45.50;;;;;;;;5060490;28;51165;-60
2023/01/10 08:54:57;;;;;;;;;68.25;54.50;;;;;;;;5061137;28;51174;-61
2023/01/10 08:57:41;;;;;;;;;63.25;47.75;;;;;;;;5060295;28;51346;-61
2023/01/10 09:00:26;;;;;;;;;58.50;45.25;;;;;;;;5060203;28;51105;-61
2023/01/10 09:03:10;;;;;;;;;57.50;42.25;;;;;;;;5060695;28;51825;-59
2023/01/10 09:05:55;;;;;;;;;63.75;47.00;;;;;;;;5060803;28;51026;-59
2023/01/10 09:08:39;;;;;;;;;65.00;48.50;;;;;;;;5060264;28;51154;-60
2023/01/10 09:11:24;;;;;;;;;59.50;47.25;;;;;;;;5060387;28;51101;-60
2023/01/10 09:14:08;;;;;;;;;60.50;46.00;;;;;;;;5060427;28;51162;-59
2023/01/10 09:16:52;;;;;;;;;62.00;51.50;;;;;;;;5060201;28;51142;-60
2023/01/10 09:19:37;;;;;;;;;57.75;44.25;;;;;;;;5060458;28;51142;-61
2023/01/10 09:22:22;;;;;;;;;55.25;41.75;;;;;;;;5059916;28;51379;-61
2023/01/10 09:25:07;;;;;;;;;61.00;42.75;;;;;;;;5060359;28;51215;-59
2023/01/10 09:27:58;;;;;;;;;55.75;41.75;;;;;;;;5060176;28;51050;-59
2023/01/10 09:30:42;;;;;;;;;58.00;42.50;;;;;;;;5059939;28;51193;-59
2023/01/10 09:33:27;;;;;;;;;61.00;43.75;;;;;;;;5059779;28;51118;-60
2023/01/10 09:36:12;;;;;;;;;65.00;46.00;;;;;;;;5060144;28;51090;-59
2023/01/10 09:38:56;;;;;;;;;62.75;46.50;;;;;;;;5060062;28;51660;-59
2023/01/10 09:41:59;;;;;;;;;65.25;45.75;;;;;;;;5059656;28;50980;-60
2023/01/10 09:44:52;;;;;;;;;59.25;47.25;;;;;;;;5060307;28;50992;-59
2023/01/10 09:48:03;;;;;;;;;62.25;45.75;;;;;;;;5059520;28;51167;-61
2023/01/10 09:51:07;;;;;;;;;63.50;46.50;;;;;;;;5058754;28;51292;-59
2023/01/10 09:53:56;;;;;;;;;64.75;47.50;;;;;;;;5059904;28;51057;-60
2023/01/10 09:56:40;;;;;;;;;64.75;47.75;;;;;;;;5059633;28;51003;-60
2023/01/10 09:59:29;;;;;;;;;62.25;45.50;;;;;;;;5059565;28;51430;-60
2023/01/10 10:02:31;;;;;;;;;60.25;46.25;;;;;;;;5054289;28;51209;-59
2023/01/10 10:05:17;;;;;;;;;62.25;44.50;;;;;;;;5059994;28;51182;-60
2023/01/10 10:08:03;;;;;;;;;58.50;43.00;;;;;;;;5059495;28;51213;-59
2023/01/10 10:10:59;;;;;;;;;66.00;48.00;;;;;;;;5060021;28;51185;-60
2023/01/10 10:14:06;;;;;;;;;61.25;46.25;;;;;;;;5062611;28;51657;-61
2023/01/10 10:17:09;;;;;;;;;63.00;45.75;;;;;;;;5049053;28;51131;-59
2023/01/10 10:20:12;;;;;;;;;62.75;45.00;;;;;;;;5063628;28;51699;-60
2023/01/10 10:23:15;;;;;;;;;65.50;46.50;;;;;;;;5063607;28;51063;-61
2023/01/10 10:26:18;;;;;;;;;65.50;47.50;;;;;;;;5063405;28;51156;-58
2023/01/10 10:29:18;;;;;;;;;66.25;48.50;;;;;;;;5063532;28;51096;-60
2023/01/10 10:32:18;;;;;;;;;66.50;51.50;;;;;;;;5054139;28;51082;-59
2023/01/10 10:35:07;;;;;;;;;62.50;47.50;;;;;;;;5063373;28;51245;-60
2023/01/10 10:37:55;;;;;;;;;69.25;48.75;;;;;;;;5063427;28;51212;-60
2023/01/10 10:40:42;;;;;;;;;67.75;47.50;;;;;;;;5063088;28;51219;-60
2023/01/10 10:43:31;;;;;;;;;64.00;46.75;;;;;;;;5046801;28;51004;-59
2023/01/10 10:46:18;;;;;;;;;71.75;53.75;;;;;;;;5057000;28;51623;-59
2023/01/10 10:49:10;;;;;;;;;66.25;49.75;;;;;;;;5063267;28;51067;-59
2023/01/10 10:51:55;;;;;;;;;68.50;49.00;;;;;;;;5062709;28;51062;-60
2023/01/10 10:54:39;;;;;;;;;64.50;47.25;;;;;;;;5062610;28;51099;-60
2023/01/10 10:57:27;;;;;;;;;65.00;48.75;;;;;;;;5062562;28;51566;-60
2023/01/10 11:00:18;;;;;;;;;62.50;46.00;;;;;;;;5062657;28;51150;-60
2023/01/10 11:03:06;;;;;;;;;58.25;43.00;;;;;;;;5063106;28;51039;-59
2023/01/10 11:05:51;;;;;;;;;60.25;41.75;;;;;;;;5045109;28;51104;-60
2023/01/10 11:08:40;;;;;;;;;61.75;46.00;;;;;;;;5062839;28;51186;-60
2023/01/10 11:11:31;;;;;;;;;62.25;46.75;;;;;;;;5062877;28;51201;-59
2023/01/10 11:14:35;;;;;;;;;54.50;42.50;;;;;;;;5045632;28;51356;-60
2023/01/10 11:17:24;;;;;;;;;62.75;45.00;;;;;;;;5062397;28;50999;-59
2023/01/10 11:20:16;;;;;;;;;58.75;44.50;;;;;;;;5062391;28;51138;-59
2023/01/10 11:23:01;;;;;;;;;58.75;43.00;;;;;;;;5062551;28;51120;-61
2023/01/10 11:25:46;;;;;;;;;61.00;46.50;;;;;;;;5061536;28;51057;-61
2023/01/10 11:28:32;;;;;;;;;63.00;46.50;;;;;;;;5062677;28;51051;-59
2023/01/10 11:31:25;;;;;;;;;57.75;43.25;;;;;;;;5062155;28;51437;-59
2023/01/10 11:34:24;;;;;;;;;59.75;45.50;;;;;;;;5072972;27;51433;-59
2023/01/10 11:37:24;;;;;;;;;62.00;43.25;;;;;;;;5061856;28;51218;-59
2023/01/10 11:40:14;;;;;;;;;57.25;43.00;;;;;;;;5061993;28;51213;-59
2023/01/10 11:42:59;;;;;;;;;59.00;45.75;;;;;;;;5061750;28;51497;-60
2023/01/10 11:45:44;;;;;;;;;54.00;41.75;;;;;;;;5078707;27;51135;-60
2023/01/10 11:48:41;;;;;;;;;46.00;31.25;;;;;;;;5061985;28;51571;-60
2023/01/10 11:51:30;;;;;;;;;62.50;45.00;;;;;;;;5061762;28;51104;-59
2023/01/10 11:54:25;;;;;;;;;61.50;44.25;;;;;;;;5061717;28;51140;-59
2023/01/10 11:57:25;;;;;;;;;54.25;42.25;;;;;;;;5060714;28;51562;-59
2023/01/10 12:00:10;;;;;;;;;60.25;44.75;;;;;;;;5061677;28;51114;-60
2023/01/10 12:02:55;;;;;;;;;62.00;45.50;;;;;;;;5061479;28;51107;-59
2023/01/10 12:05:39;;;;;;;;;56.75;42.75;;;;;;;;5062021;28;51076;-59
2023/01/10 12:08:27;;;;;;;;;55.50;40.75;;;;;;;;5065796;27;51425;-59
2023/01/10 12:11:12;;;;;;;;;65.00;46.00;;;;;;;;5081784;27;51175;-60
2023/01/10 12:14:00;;;;;;;;;55.25;43.50;;;;;;;;5061347;28;51130;-59
2023/01/10 12:16:45;;;;;;;;;55.25;43.00;;;;;;;;5061798;28;51062;-59
2023/01/10 12:19:29;;;;;;;;;55.75;42.00;;;;;;;;5046714;28;51223;-60
2023/01/10 12:22:14;;;;;;;;;58.75;44.50;;;;;;;;5060947;28;51581;-61
2023/01/10 12:25:00;;;;;;;;;62.25;44.00;;;;;;;;5049048;28;51167;-61
2023/01/10 12:27:49;;;;;;;;;53.00;40.75;;;;;;;;5061267;28;51114;-59
2023/01/10 12:30:53;;;;;;;;;59.25;44.75;;;;;;;;5039170;28;51224;-59
2023/01/10 12:33:45;;;;;;;;;61.50;46.75;;;;;;;;5038432;28;51111;-60
2023/01/10 12:36:41;;;;;;;;;54.25;42.75;;;;;;;;5037003;28;51188;-58
2023/01/10 12:39:32;;;;;;;;;56.50;41.50;;;;;;;;5038520;28;51714;-59
2023/01/10 12:45:48;;;;;;;;;62.75;45.75;;;;;;;;5038594;28;51111;-59
2023/01/10 12:48:32;;;;;;;;;62.25;44.50;;;;;;;;5023813;28;51416;-61
2023/01/10 12:51:20;;;;;;;;;65.25;46.75;;;;;;;;5038422;28;51275;-60
2023/01/10 12:54:19;;;;;;;;;62.75;44.50;;;;;;;;5038032;28;51182;-60
2023/01/10 12:57:13;;;;;;;;;62.00;46.00;;;;;;;;5037874;28;51144;-59
2023/01/10 13:00:00;;;;;;;;;62.50;47.00;;;;;;;;5038216;28;51200;-60
2023/01/10 13:02:45;;;;;;;;;60.50;47.00;;;;;;;;5037911;28;51180;-59
2023/01/10 13:05:31;;;;;;;;;61.25;44.75;;;;;;;;5051622;28;51649;-59
2023/01/10 13:08:16;;;;;;;;;56.50;41.50;;;;;;;;5061533;27;51127;-58
2023/01/10 13:11:04;;;;;;;;;58.25;44.50;;;;;;;;5081049;27;51016;-59
2023/01/10 13:13:51;;;;;;;;;63.75;47.00;;;;;;;;5080345;27;51126;-58
2023/01/10 13:16:44;;;;;;;;;56.75;42.75;;;;;;;;5080558;27;51076;-59
2023/01/10 13:19:29;;;;;;;;;60.50;44.50;;;;;;;;5080381;27;51160;-60
2023/01/10 13:22:22;;;;;;;;;61.50;45.25;;;;;;;;5080516;27;51198;-59
2023/01/10 13:25:18;;;;;;;;;61.00;44.25;;;;;;;;5080354;27;51520;-59
2023/01/10 13:28:03;;;;;;;;;64.25;47.25;;;;;;;;5080990;27;51128;-60
2023/01/10 13:30:52;;;;;;;;;60.50;45.75;;;;;;;;5080552;27;51177;-59
2023/01/10 13:33:45;;;;;;;;;63.50;48.00;;;;;;;;5080147;27;51256;-59
2023/01/10 13:36:34;;;;;;;;;63.25;43.75;;;;;;;;5079577;27;51020;-59
2023/01/10 13:39:34;;;;;;;;;56.00;43.25;;;;;;;;5079763;27;51494;-59
2023/01/10 13:45:37;;;;;;;;;61.00;43.75;;;;;;;;5080064;27;51110;-58
2023/01/10 13:48:27;;;;;;;;;61.00;43.75;;;;;;;;5079885;27;51163;-59
2023/01/10 13:51:16;;;;;;;;;62.50;45.50;;;;;;;;5080119;27;51527;-59
2023/01/10 13:54:01;;;;;;;;;61.00;43.75;;;;;;;;5060045;28;51030;-60
2023/01/10 13:56:46;;;;;;;;;51.00;38.25;;;;;;;;5071997;27;51672;-60
2023/01/10 14:02:41;;;;;;;;;58.25;42.50;;;;;;;;5080168;27;51086;-59
2023/01/10 14:05:25;;;;;;;;;59.50;43.25;;;;;;;;5079957;28;51389;-60
2023/01/10 14:08:14;;;;;;;;;58.25;43.50;;;;;;;;5079322;28;51094;-59
2023/01/10 14:11:09;;;;;;;;;59.25;45.00;;;;;;;;5079907;28;51117;-58
2023/01/10 14:13:58;;;;;;;;;62.75;42.00;;;;;;;;5079997;28;51026;-60
2023/01/10 14:16:45;;;;;;;;;61.00;42.00;;;;;;;;5079412;28;51117;-57
2023/01/10 14:19:31;;;;;;;;;47.50;33.25;;;;;;;;5059458;28;51110;-57
2023/01/10 14:22:25;;;;;;;;;64.50;45.00;;;;;;;;5059487;28;51612;-59
2023/01/10 14:25:19;;;;;;;;;57.50;42.75;;;;;;;;5059363;28;51055;-61
2023/01/10 14:28:13;;;;;;;;;63.50;45.75;;;;;;;;5059662;28;51158;-59
2023/01/10 14:31:09;;;;;;;;;53.00;40.25;;;;;;;;5059088;28;51081;-58
2023/01/10 14:33:53;;;;;;;;;60.00;43.00;;;;;;;;5059287;28;51099;-59
2023/01/10 14:36:44;;;;;;;;;54.50;39.50;;;;;;;;5059049;28;51384;-60
2023/01/10 14:39:29;;;;;;;;;59.50;44.00;;;;;;;;5059390;28;51100;-59
2023/01/10 14:42:17;;;;;;;;;59.00;39.00;;;;;;;;5059046;28;51371;-59
2023/01/10 14:45:07;;;;;;;;;51.75;40.75;;;;;;;;5059536;28;51191;-59
2023/01/10 14:47:52;;;;;;;;;55.25;40.25;;;;;;;;5041463;28;51734;-60
2023/01/10 14:50:36;;;;;;;;;55.75;42.50;;;;;;;;5058955;28;51389;-59
2023/01/10 14:53:26;;;;;;;;;60.00;44.25;;;;;;;;5059527;28;51157;-60
2023/01/10 14:56:18;;;;;;;;;59.50;40.25;;;;;;;;5059355;28;51573;-60
2023/01/10 14:59:21;;;;;;;;;57.25;43.00;;;;;;;;5059606;28;51047;-59
2023/01/10 15:02:12;;;;;;;;;46.25;33.75;;;;;;;;5062759;28;51163;-58
2023/01/10 15:05:08;;;;;;;;;57.00;42.50;;;;;;;;5063147;28;51150;-60
2023/01/10 15:08:14;;;;;;;;;60.50;42.00;;;;;;;;5061145;28;51334;-60
2023/01/10 15:11:03;;;;;;;;;57.25;44.75;;;;;;;;5061786;28;51156;-58
2023/01/10 15:13:55;;;;;;;;;59.00;43.00;;;;;;;;5044790;28;51626;-58
2023/01/10 15:16:40;;;;;;;;;58.50;43.00;;;;;;;;5062306;28;51061;-58
2023/01/10 15:19:25;;;;;;;;;62.00;44.50;;;;;;;;5062278;28;51054;-59
2023/01/10 15:22:26;;;;;;;;;60.00;42.75;;;;;;;;5062337;28;51436;-58
2023/01/10 15:25:19;;;;;;;;;54.25;40.75;;;;;;;;5060844;28;51123;-60
2023/01/10 15:28:05;;;;;;;;;55.75;39.75;;;;;;;;5060093;28;51252;-58
2023/01/10 15:30:49;;;;;;;;;53.75;38.75;;;;;;;;5061063;28;51073;-58
2023/01/10 15:33:35;;;;;;;;;51.25;39.75;;;;;;;;5061345;28;51441;-58
2023/01/10 15:36:20;;;;;;;;;56.00;40.50;;;;;;;;5051268;28;51245;-59
2023/01/10 15:39:05;;;;;;;;;52.50;40.75;;;;;;;;5061604;28;51131;-59
2023/01/10 15:41:54;;;;;;;;;55.50;40.00;;;;;;;;5061048;28;51234;-59
2023/01/10 15:44:43;;;;;;;;;51.00;35.00;;;;;;;;5060454;28;51132;-60
2023/01/10 15:47:40;;;;;;;;;54.25;39.00;;;;;;;;5059876;28;51106;-59
2023/01/10 15:50:32;;;;;;;;;57.50;41.25;;;;;;;;5059853;28;51405;-59
2023/01/10 15:53:16;;;;;;;;;55.75;40.50;;;;;;;;5059569;28;51087;-59
2023/01/10 15:56:10;;;;;;;;;54.00;37.50;;;;;;;;5059999;28;51113;-58
2023/01/10 15:58:55;;;;;;;;;52.75;39.00;;;;;;;;5060870;28;51103;-60
2023/01/10 16:01:39;;;;;;;;;50.25;37.50;;;;;;;;5061915;28;51074;-59
2023/01/10 16:04:24;;;;;;;;;53.25;38.00;;;;;;;;5061798;28;51422;-58
2023/01/10 16:07:15;;;;;;;;;54.00;40.50;;;;;;;;5061542;28;51016;-58
2023/01/10 16:10:00;;;;;;;;;60.00;41.25;;;;;;;;5043769;28;51025;-59
2023/01/10 16:15:47;;;;;;;;;56.25;39.75;;;;;;;;5061686;28;51438;-60
2023/01/10 16:18:32;;;;;;;;;51.75;38.00;;;;;;;;5061321;28;51083;-60
2023/01/10 16:21:18;;;;;;;;;53.00;38.50;;;;;;;;5061944;28;51062;-59
2023/01/10 16:24:03;;;;;;;;;58.50;39.00;;;;;;;;5061092;28;51418;-59
2023/01/10 16:26:47;;;;;;;;;53.75;40.25;;;;;;;;5061436;28;51092;-59
2023/01/10 16:29:32;;;;;;;;;56.00;39.25;;;;;;;;5061443;28;51655;-59
2023/01/10 16:32:16;;;;;;;;;46.50;37.25;;;;;;;;5061047;28;51178;-60
2023/01/10 16:35:01;;;;;;;;;50.00;36.75;;;;;;;;5061123;28;51146;-60
2023/01/10 16:37:46;;;;;;;;;50.75;35.00;;;;;;;;5060913;28;51194;-57